Time;durP1;ratioP1;P1;durP2;ratioP2;P2;SDS_P1;SDS_P2;PMS_P1;PMS_P2;Temp;Humidity;BMP_temperature;BMP_pressure;BME280_temperature;BME280_humidity;BME280_pressure;Samples;Min_cycle;Max_cycle;Signal;HPM_P1;HPM_P2
2021/10/27 00:01:50;;;;;;;181.97;76.42;;;;;;;0.25;73.40;95283.16;1704219;83;21167;-71
2021/10/27 00:04:17;;;;;;;155.15;65.08;;;;;;;0.15;73.41;95292.70;1700915;83;21450;-70
2021/10/27 00:06:43;;;;;;;178.47;77.22;;;;;;;0.08;73.68;95289.13;1692914;83;21065;-70
2021/10/27 00:09:10;;;;;;;164.10;72.75;;;;;;;0.05;73.95;95281.16;1695243;83;21067;-71
2021/10/27 00:11:37;;;;;;;139.97;62.30;;;;;;;0.08;74.13;95280.42;1678099;83;21511;-70
2021/10/27 00:14:04;;;;;;;154.15;66.20;;;;;;;0.13;74.07;95281.48;1683869;83;21155;-70
2021/10/27 00:16:31;;;;;;;162.43;69.30;;;;;;;0.21;73.93;95285.81;1674435;83;20968;-68
2021/10/27 00:18:58;;;;;;;135.80;65.92;;;;;;;0.22;73.64;95288.72;1690892;83;21084;-70
2021/10/27 00:21:25;;;;;;;133.32;61.20;;;;;;;0.25;73.52;95286.62;1703554;83;21065;-69
2021/10/27 00:23:52;;;;;;;130.18;57.25;;;;;;;0.23;73.52;95298.98;1695696;83;21026;-71
2021/10/27 00:26:19;;;;;;;174.38;74.30;;;;;;;0.23;73.32;95294.34;1701126;83;21157;-69
2021/10/27 00:28:46;;;;;;;191.18;83.47;;;;;;;0.19;73.34;95299.52;1690575;83;21419;-70
2021/10/27 00:31:13;;;;;;;176.85;79.65;;;;;;;0.10;73.28;95298.45;1689668;83;21094;-70
2021/10/27 00:33:40;;;;;;;183.72;80.83;;;;;;;-0.02;73.35;95301.36;1682311;83;21025;-70
2021/10/27 00:36:07;;;;;;;177.43;76.22;;;;;;;-0.14;73.48;95302.16;1685072;83;20999;-69
2021/10/27 00:38:35;;;;;;;181.87;83.42;;;;;;;-0.22;73.33;95299.73;1686608;83;21176;-70
2021/10/27 00:41:02;;;;;;;182.45;81.35;;;;;;;-0.33;73.62;95302.84;1674857;85;21569;-69
2021/10/27 00:43:28;;;;;;;165.90;74.70;;;;;;;-0.36;73.84;95304.37;1683741;83;20975;-70
2021/10/27 00:45:55;;;;;;;141.55;62.62;;;;;;;-0.42;73.80;95298.28;1680446;83;21153;-70
2021/10/27 00:48:22;;;;;;;155.32;67.92;;;;;;;-0.42;73.71;95305.03;1692237;83;21030;-71
2021/10/27 00:50:49;;;;;;;147.30;63.40;;;;;;;-0.44;74.01;95303.27;1692622;83;21172;-70
2021/10/27 00:53:15;;;;;;;128.82;56.45;;;;;;;-0.39;74.30;95301.60;1698990;83;21066;-71
2021/10/27 00:55:42;;;;;;;122.95;53.60;;;;;;;-0.34;74.05;95308.04;1699178;83;21042;-69
2021/10/27 00:58:09;;;;;;;142.62;62.93;;;;;;;-0.32;74.00;95311.16;1707990;83;20955;-70
2021/10/27 01:00:36;;;;;;;172.82;76.72;;;;;;;-0.28;73.92;95316.03;1675047;83;21089;-70
2021/10/27 01:03:02;;;;;;;173.38;78.37;;;;;;;-0.32;73.89;95311.16;1695280;83;21172;-70
2021/10/27 01:05:30;;;;;;;138.35;61.73;;;;;;;-0.32;73.91;95314.66;1697043;84;21007;-69
2021/10/27 01:07:56;;;;;;;141.75;60.90;;;;;;;-0.32;73.67;95309.80;1680812;84;20960;-69
2021/10/27 01:10:24;;;;;;;131.37;58.60;;;;;;;-0.36;73.63;95307.63;1677194;83;21149;-71
2021/10/27 01:12:51;;;;;;;157.20;68.07;;;;;;;-0.38;73.65;95310.68;1689931;83;20986;-70
2021/10/27 01:15:18;;;;;;;165.00;73.10;;;;;;;-0.35;73.62;95310.53;1705323;83;21049;-70
2021/10/27 01:17:45;;;;;;;159.78;71.60;;;;;;;-0.34;73.72;95312.09;1712561;83;20978;-67
2021/10/27 01:20:12;;;;;;;175.90;73.55;;;;;;;-0.36;73.71;95313.03;1683614;83;21070;-70
2021/10/27 01:22:39;;;;;;;163.65;71.85;;;;;;;-0.44;73.74;95312.73;1674401;84;20999;-70
2021/10/27 01:25:09;;;;;;;147.15;61.88;;;;;;;-0.51;73.89;95312.05;1692398;83;21517;-69
2021/10/27 01:27:45;;;;;;;154.97;59.30;;;;;;;-0.59;73.89;95305.55;1706411;84;21204;-70
2021/10/27 01:30:18;;;;;;;174.30;65.30;;;;;;;-0.73;73.86;95311.52;1681072;83;21450;-70
2021/10/27 01:32:46;;;;;;;174.68;63.98;;;;;;;-0.88;74.20;95313.77;1686813;83;21062;-69
2021/10/27 01:35:13;;;;;;;143.37;57.65;;;;;;;-0.95;74.46;95315.56;1693575;83;21529;-71
2021/10/27 01:37:40;;;;;;;133.95;56.15;;;;;;;-0.97;74.60;95313.80;1659829;84;21005;-69
2021/10/27 01:40:12;;;;;;;148.60;60.35;;;;;;;-0.97;74.59;95319.20;1703044;83;21185;-70
2021/10/27 01:42:39;;;;;;;149.80;60.48;;;;;;;-0.99;74.72;95316.08;1699162;83;21562;-71
2021/10/27 01:45:08;;;;;;;149.97;64.37;;;;;;;-0.94;74.82;95317.88;1689599;83;21065;-70
2021/10/27 01:47:38;;;;;;;142.82;63.52;;;;;;;-0.88;74.97;95322.42;1692253;83;20976;-69
2021/10/27 01:50:06;;;;;;;145.45;64.45;;;;;;;-0.78;74.89;95323.19;1676108;83;21106;-70
2021/10/27 01:52:34;;;;;;;138.30;61.75;;;;;;;-0.71;74.71;95328.69;1700820;83;21805;-70
2021/10/27 01:55:00;;;;;;;108.72;52.05;;;;;;;-0.69;74.33;95329.90;1694811;83;21124;-69
2021/10/27 01:57:28;;;;;;;84.80;40.58;;;;;;;-0.69;74.31;95327.20;1672730;83;20956;-70
2021/10/27 01:59:54;;;;;;;123.55;54.65;;;;;;;-0.74;74.04;95328.83;1682358;83;21098;-70
2021/10/27 02:02:22;;;;;;;153.10;69.12;;;;;;;-0.76;74.26;95318.96;1698188;83;21548;-70
2021/10/27 02:04:48;;;;;;;151.37;65.35;;;;;;;-0.85;73.86;95323.84;1691969;83;21201;-71
2021/10/27 02:07:15;;;;;;;129.20;61.28;;;;;;;-0.96;73.74;95320.17;1682464;83;21597;-70
2021/10/27 02:09:42;;;;;;;169.43;81.20;;;;;;;-1.11;73.79;95329.16;1686144;83;21045;-68
2021/10/27 02:12:09;;;;;;;159.57;72.27;;;;;;;-1.27;74.29;95329.86;1687804;83;21062;-70
2021/10/27 02:14:35;;;;;;;160.88;74.80;;;;;;;-1.28;74.79;95332.90;1706750;83;21510;-70
2021/10/27 02:17:05;;;;;;;155.55;78.60;;;;;;;-1.23;74.65;95328.55;1689637;83;21541;-71
2021/10/27 02:19:32;;;;;;;150.72;67.27;;;;;;;-1.21;74.43;95327.62;1691467;83;21525;-69
2021/10/27 02:21:58;;;;;;;138.70;63.83;;;;;;;-1.21;74.39;95328.41;1710598;83;21014;-71
2021/10/27 02:24:25;;;;;;;138.00;66.20;;;;;;;-1.22;74.32;95331.45;1692493;83;20999;-70
2021/10/27 02:26:52;;;;;;;148.50;67.53;;;;;;;-1.21;74.53;95333.02;1703968;83;21070;-70
2021/10/27 02:29:18;;;;;;;147.02;62.95;;;;;;;-1.17;74.52;95333.30;1690763;83;21115;-70
2021/10/27 02:31:45;;;;;;;153.72;68.37;;;;;;;-1.12;74.38;95337.63;1692170;83;21023;-69
2021/10/27 02:34:13;;;;;;;152.47;71.22;;;;;;;-1.09;74.38;95336.91;1684699;83;21031;-69
2021/10/27 02:36:39;;;;;;;162.77;76.70;;;;;;;-1.05;74.26;95332.34;1703731;83;20982;-70
2021/10/27 02:39:08;;;;;;;165.65;75.92;;;;;;;-1.01;74.04;95339.93;1690698;83;21030;-71
2021/10/27 02:41:34;;;;;;;156.15;73.83;;;;;;;-1.02;73.94;95345.92;1699749;83;21163;-70
2021/10/27 02:44:03;;;;;;;143.85;67.03;;;;;;;-1.03;73.85;95340.86;1680410;83;20956;-70
2021/10/27 02:46:29;;;;;;;149.87;70.15;;;;;;;-1.09;73.71;95348.50;1696664;83;21136;-69
2021/10/27 02:48:56;;;;;;;152.72;75.20;;;;;;;-1.17;73.79;95341.98;1698794;83;21016;-71
2021/10/27 02:51:22;;;;;;;168.28;74.58;;;;;;;-1.19;73.79;95341.53;1693665;83;21098;-69
2021/10/27 02:53:49;;;;;;;157.07;70.60;;;;;;;-1.17;73.93;95344.68;1689581;83;21799;-71
2021/10/27 02:56:16;;;;;;;164.45;74.55;;;;;;;-1.10;73.82;95343.45;1693923;83;21011;-60
2021/10/27 02:58:42;;;;;;;148.93;66.97;;;;;;;-1.02;73.84;95345.13;1674567;83;21110;-58
2021/10/27 03:01:09;;;;;;;146.87;67.22;;;;;;;-0.90;73.56;95338.20;1689291;83;21050;-58
2021/10/27 03:03:36;;;;;;;144.87;70.52;;;;;;;-0.71;73.14;95338.14;1684957;83;21111;-58
2021/10/27 03:06:02;;;;;;;145.43;69.50;;;;;;;-0.61;72.77;95334.84;1670106;83;21151;-57
2021/10/27 03:08:29;;;;;;;132.57;63.55;;;;;;;-0.52;72.38;95345.61;1696417;83;20971;-56
2021/10/27 03:10:56;;;;;;;147.75;68.65;;;;;;;-0.52;71.70;95338.06;1701391;83;21008;-63
2021/10/27 03:13:23;;;;;;;139.65;68.80;;;;;;;-0.70;71.44;95342.41;1698860;83;21038;-64
2021/10/27 03:15:49;;;;;;;119.13;60.60;;;;;;;-0.79;71.81;95347.28;1695639;83;20959;-65
2021/10/27 03:18:16;;;;;;;148.50;62.88;;;;;;;-0.80;71.80;95347.08;1690770;83;21093;-74
2021/10/27 03:20:42;;;;;;;122.42;63.75;;;;;;;-0.82;71.91;95346.63;1712666;83;21032;-72
2021/10/27 03:23:09;;;;;;;144.37;66.35;;;;;;;-0.87;72.00;95340.19;1693395;83;20970;-73
2021/10/27 03:25:37;;;;;;;136.72;63.83;;;;;;;-0.82;72.30;95352.03;1701647;83;20970;-68
2021/10/27 03:28:04;;;;;;;132.82;62.93;;;;;;;-0.72;72.25;95348.73;1681608;83;21078;-69
2021/10/27 03:30:31;;;;;;;127.75;58.48;;;;;;;-0.67;72.00;95355.18;1678231;83;21137;-70
2021/10/27 03:32:58;;;;;;;133.97;63.87;;;;;;;-0.70;71.95;95358.61;1699041;83;21430;-70
2021/10/27 03:35:25;;;;;;;126.78;62.08;;;;;;;-0.75;72.07;95354.28;1708357;83;21050;-69
2021/10/27 03:37:52;;;;;;;128.05;63.20;;;;;;;-0.67;71.90;95358.67;1660380;83;21589;-70
2021/10/27 03:40:19;;;;;;;126.65;63.10;;;;;;;-0.58;71.61;95363.84;1685740;83;21113;-70
2021/10/27 03:42:46;;;;;;;142.57;65.57;;;;;;;-0.45;71.21;95369.27;1694647;83;21106;-68
2021/10/27 03:45:12;;;;;;;127.82;59.33;;;;;;;-0.37;70.62;95367.64;1685149;83;21030;-70
2021/10/27 03:47:39;;;;;;;126.80;60.90;;;;;;;-0.40;70.23;95364.91;1677910;83;20967;-69
2021/10/27 03:50:10;;;;;;;119.10;59.63;;;;;;;-0.52;70.25;95369.14;1666212;83;21019;-70
2021/10/27 03:52:35;;;;;;;127.95;60.90;;;;;;;-0.60;70.48;95373.64;1707905;83;21026;-67
2021/10/27 03:55:03;;;;;;;128.53;58.95;;;;;;;-0.59;70.29;95381.95;1693265;83;21155;-69
2021/10/27 03:57:30;;;;;;;121.47;54.30;;;;;;;-0.62;70.45;95385.38;1673885;83;20991;-70
2021/10/27 03:59:58;;;;;;;113.68;52.60;;;;;;;-0.61;70.34;95386.17;1681134;83;21116;-70
2021/10/27 04:02:26;;;;;;;122.40;56.15;;;;;;;-0.68;70.19;95391.44;1695729;83;21045;-70
2021/10/27 04:04:53;;;;;;;110.15;53.48;;;;;;;-0.81;70.17;95400.88;1699116;83;21089;-69
2021/10/27 04:07:19;;;;;;;116.30;53.17;;;;;;;-0.94;70.17;95410.27;1698205;83;21166;-72
2021/10/27 04:09:47;;;;;;;129.03;59.83;;;;;;;-1.10;70.24;95398.78;1692877;83;21003;-70
2021/10/27 04:12:16;;;;;;;128.07;58.02;;;;;;;-1.18;70.69;95408.66;1701744;83;21006;-69
2021/10/27 04:14:44;;;;;;;148.40;66.00;;;;;;;-1.14;70.93;95403.34;1704958;83;21037;-70
2021/10/27 04:17:11;;;;;;;137.52;61.10;;;;;;;-0.99;71.21;95405.17;1683616;83;21554;-66
2021/10/27 04:19:38;;;;;;;152.97;68.28;;;;;;;-0.90;70.80;95408.41;1670365;83;21146;-71
2021/10/27 04:22:05;;;;;;;118.75;57.40;;;;;;;-0.90;70.45;95412.46;1661536;84;21196;-70
2021/10/27 04:24:32;;;;;;;133.65;59.80;;;;;;;-0.84;70.62;95419.13;1661387;84;21078;-70
2021/10/27 04:26:59;;;;;;;136.40;60.17;;;;;;;-0.80;70.52;95419.41;1659313;83;20983;-68
2021/10/27 04:29:25;;;;;;;131.72;58.15;;;;;;;-0.83;70.07;95415.28;1702429;83;21049;-71
2021/10/27 04:31:52;;;;;;;124.05;60.73;;;;;;;-0.92;70.15;95416.86;1679035;83;21935;-70
2021/10/27 04:34:19;;;;;;;141.20;65.80;;;;;;;-0.97;70.06;95416.39;1684110;83;20935;-69
2021/10/27 04:36:46;;;;;;;196.28;78.95;;;;;;;-1.05;70.09;95413.33;1687167;83;21070;-70
2021/10/27 04:39:13;;;;;;;180.20;73.22;;;;;;;-1.04;70.00;95414.34;1685426;83;21553;-70
2021/10/27 04:41:40;;;;;;;173.05;71.65;;;;;;;-1.06;70.05;95421.22;1681009;83;21514;-69
2021/10/27 04:44:06;;;;;;;178.60;74.12;;;;;;;-1.08;70.21;95414.84;1712589;83;21087;-70
2021/10/27 04:46:33;;;;;;;169.20;73.50;;;;;;;-1.00;70.66;95413.06;1699640;83;21037;-68
2021/10/27 04:49:00;;;;;;;153.90;69.58;;;;;;;-0.88;70.49;95398.03;1705404;83;21094;-68
2021/10/27 04:51:27;;;;;;;156.75;69.58;;;;;;;-0.88;70.33;95392.63;1687953;83;21012;-69
2021/10/27 04:53:53;;;;;;;146.65;64.20;;;;;;;-0.92;70.04;95406.06;1677135;83;21083;-70
2021/10/27 04:56:20;;;;;;;158.82;68.30;;;;;;;-0.95;69.95;95408.72;1698284;83;21245;-70
2021/10/27 04:58:46;;;;;;;163.82;75.03;;;;;;;-1.05;70.33;95414.69;1700619;83;21067;-70
2021/10/27 05:01:13;;;;;;;182.15;78.95;;;;;;;-1.12;70.19;95411.86;1688186;83;21030;-69
2021/10/27 05:03:40;;;;;;;203.27;84.67;;;;;;;-1.17;70.84;95416.20;1688905;83;21580;-70
2021/10/27 05:06:08;;;;;;;201.52;86.85;;;;;;;-1.08;70.59;95423.50;1669099;85;21451;-70
2021/10/27 05:08:35;;;;;;;191.37;82.53;;;;;;;-1.02;70.58;95423.41;1681692;83;21970;-66
2021/10/27 05:11:04;;;;;;;161.68;71.95;;;;;;;-0.92;70.54;95421.49;1683652;83;20975;-67
2021/10/27 05:13:31;;;;;;;164.90;73.57;;;;;;;-0.83;70.13;95428.23;1700204;83;21545;-68
2021/10/27 05:15:58;;;;;;;166.03;74.12;;;;;;;-0.79;69.89;95431.00;1681935;83;21015;-68
2021/10/27 05:18:24;;;;;;;172.35;77.25;;;;;;;-0.71;69.89;95436.17;1697859;83;21470;-71
2021/10/27 05:20:51;;;;;;;157.82;70.32;;;;;;;-0.62;69.51;95448.10;1681608;83;21127;-70
2021/10/27 05:23:17;;;;;;;140.57;68.22;;;;;;;-0.56;69.72;95444.72;1698322;83;20975;-70
2021/10/27 05:25:44;;;;;;;177.47;84.60;;;;;;;-0.43;69.26;95454.81;1695303;83;21074;-69
2021/10/27 05:28:11;;;;;;;179.35;81.42;;;;;;;-0.52;68.99;95455.60;1667792;84;21129;-70
2021/10/27 05:30:38;;;;;;;235.35;103.42;;;;;;;-0.62;68.87;95453.51;1680084;84;21001;-70
2021/10/27 05:33:05;;;;;;;223.43;100.47;;;;;;;-0.75;68.97;95452.86;1697725;83;21237;-69
2021/10/27 05:35:32;;;;;;;257.40;114.90;;;;;;;-0.83;69.16;95461.98;1702712;84;21150;-69
2021/10/27 05:37:59;;;;;;;234.90;116.08;;;;;;;-0.96;69.16;95457.87;1693294;83;21021;-70
2021/10/27 05:40:26;;;;;;;227.13;107.90;;;;;;;-1.06;69.57;95456.31;1701020;84;21026;-65
2021/10/27 05:42:53;;;;;;;197.15;95.75;;;;;;;-1.02;70.12;95462.01;1696205;82;20983;-67
2021/10/27 05:45:23;;;;;;;177.22;85.38;;;;;;;-0.95;70.05;95473.52;1697747;82;21766;-66
2021/10/27 05:47:51;;;;;;;215.37;101.92;;;;;;;-0.96;70.27;95477.36;1696277;83;21183;-64
2021/10/27 05:55:37;;;;;;;303.52;146.93;;;;;;;-1.14;70.32;95488.37;1685289;83;21032;-63
2021/10/27 05:58:03;;;;;;;251.32;123.95;;;;;;;-1.11;70.79;95489.77;1683486;82;21772;-67
2021/10/27 06:00:32;;;;;;;253.77;118.93;;;;;;;-0.92;71.34;95497.10;1694364;82;21026;-64
2021/10/27 06:03:01;;;;;;;256.38;115.47;;;;;;;-0.61;71.46;95498.30;1687751;82;21863;-67
2021/10/27 06:05:29;;;;;;;237.23;108.32;;;;;;;-0.35;71.10;95504.58;1670594;83;21099;-67
2021/10/27 06:07:56;;;;;;;150.55;76.60;;;;;;;-0.08;70.76;95495.96;1653908;84;21069;-63
2021/10/27 06:10:23;;;;;;;154.45;83.52;;;;;;;0.15;70.65;95496.13;1657639;84;21187;-64
2021/10/27 06:12:55;;;;;;;204.78;98.45;;;;;;;0.33;70.24;95502.04;1661789;84;20979;-66
2021/10/27 06:15:23;;;;;;;224.52;103.10;;;;;;;0.46;69.92;95504.76;1633424;84;21070;-62
2021/10/27 06:17:50;;;;;;;227.65;103.83;;;;;;;0.54;69.90;95505.05;1632104;84;21063;-64
2021/10/27 06:20:17;;;;;;;204.23;103.07;;;;;;;0.72;69.68;95512.06;1683934;82;21092;-59
2021/10/27 06:22:44;;;;;;;243.37;117.08;;;;;;;0.86;69.80;95522.54;1686232;82;22151;-62
2021/10/27 06:25:12;;;;;;;249.25;122.95;;;;;;;1.07;69.32;95524.17;1652829;83;21071;-64
2021/10/27 06:27:42;;;;;;;244.70;125.33;;;;;;;1.25;68.71;95530.59;1687761;82;21080;-60
2021/10/27 06:30:13;;;;;;;242.40;123.62;;;;;;;1.38;68.29;95529.77;1668641;82;22397;-67
2021/10/27 06:32:53;;;;;;;220.20;114.70;;;;;;;1.53;68.02;95526.84;1684598;82;21573;-61
2021/10/27 06:35:17;;;;;;;185.60;99.90;;;;;;;1.65;67.69;95534.73;1649636;83;21163;-62
2021/10/27 06:46:13;;;;;;;65.52;40.98;;;;;;;1.93;67.93;95534.45;1667906;82;21054;-62
2021/10/27 06:48:30;;;;;;;91.97;45.15;;;;;;;2.17;67.86;95537.97;1676862;82;21087;-63
2021/10/27 06:50:57;;;;;;;89.25;49.33;;;;;;;2.38;67.49;95537.38;1676797;82;21758;-62
2021/10/27 06:53:24;;;;;;;85.83;49.53;;;;;;;2.50;67.07;95548.73;1668233;82;21081;-64
2021/10/27 06:55:52;;;;;;;90.38;48.48;;;;;;;2.46;66.84;95545.77;1678833;82;21007;-62
2021/10/27 06:58:21;;;;;;;89.85;49.10;;;;;;;2.44;67.08;95543.45;1674613;83;20993;-70
2021/10/27 07:00:53;;;;;;;72.27;41.18;;;;;;;2.47;67.20;95550.08;1672326;82;21148;-70
2021/10/27 07:16:40;;;;;;;72.87;42.45;;;;;;;2.75;66.95;95542.13;1686687;82;21424;-64
2021/10/27 07:19:07;;;;;;;68.00;40.98;;;;;;;2.87;66.84;95539.11;1687659;82;21194;-59
2021/10/27 07:21:34;;;;;;;67.08;37.73;;;;;;;2.95;66.64;95536.63;1675721;83;21054;-64
2021/10/27 07:24:01;;;;;;;78.33;39.95;;;;;;;3.00;66.28;95525.39;1660438;82;21081;-60
2021/10/27 07:26:29;;;;;;;54.38;29.32;;;;;;;3.11;66.16;95531.67;1682074;82;21627;-63
2021/10/27 07:28:56;;;;;;;47.25;27.30;;;;;;;3.35;65.70;95524.21;1685780;82;20928;-61
2021/10/27 07:31:26;;;;;;;83.50;47.23;;;;;;;3.55;65.23;95528.38;1690074;82;21015;-62
2021/10/27 07:34:00;;;;;;;52.03;30.52;;;;;;;3.83;64.94;95518.95;1687126;82;21039;-60
2021/10/27 07:36:44;;;;;;;60.78;36.77;;;;;;;4.10;64.12;95516.11;1691627;82;21031;-60
2021/10/27 07:41:38;;;;;;;74.80;40.15;;;;;;;4.40;63.41;95519.23;1691633;82;21070;-59
2021/10/27 07:44:14;;;;;;;63.83;36.17;;;;;;;4.50;63.17;95521.76;1690674;82;21097;-62
2021/10/27 07:46:34;;;;;;;56.68;33.85;;;;;;;4.60;63.31;95514.94;1673175;82;21106;-66
2021/10/27 07:49:01;;;;;;;49.50;28.70;;;;;;;4.67;62.65;95512.23;1679841;82;21070;-59
2021/10/27 07:51:28;;;;;;;50.75;29.15;;;;;;;4.68;62.39;95515.16;1652502;84;21102;-60
2021/10/27 07:53:55;;;;;;;59.20;32.42;;;;;;;4.74;62.37;95515.52;1652006;82;21162;-60
2021/10/27 07:56:22;;;;;;;47.90;29.15;;;;;;;4.80;62.29;95512.61;1656618;83;21130;-60
2021/10/27 07:58:50;;;;;;;57.23;31.17;;;;;;;4.95;62.13;95506.73;1683256;82;22632;-61
2021/10/27 08:01:17;;;;;;;48.35;29.72;;;;;;;5.14;61.75;95506.30;1673800;82;21093;-62
2021/10/27 08:03:43;;;;;;;47.90;30.77;;;;;;;5.32;61.30;95502.93;1653296;82;22286;-61
2021/10/27 08:06:11;;;;;;;63.02;37.28;;;;;;;5.52;60.71;95499.93;1675419;82;21019;-64
2021/10/27 08:08:39;;;;;;;75.60;42.65;;;;;;;5.76;60.82;95497.70;1637019;83;21049;-63
2021/10/27 08:11:05;;;;;;;68.10;35.98;;;;;;;6.03;60.26;95500.09;1674011;83;21659;-63
2021/10/27 08:13:32;;;;;;;62.03;29.27;;;;;;;6.27;60.56;95503.25;1650521;83;21050;-61
2021/10/27 08:15:59;;;;;;;51.60;27.90;;;;;;;6.52;59.85;95492.92;1678916;82;21174;-61
2021/10/27 08:18:26;;;;;;;39.27;22.25;;;;;;;6.78;59.36;95496.41;1672566;82;21519;-62
2021/10/27 08:20:53;;;;;;;43.15;24.95;;;;;;;7.03;58.63;95505.17;1670646;82;21069;-65
2021/10/27 08:23:22;;;;;;;30.35;19.23;;;;;;;7.24;58.07;95502.98;1687122;82;21018;-62
2021/10/27 08:25:53;;;;;;;26.62;17.60;;;;;;;7.41;56.84;95500.64;1677020;82;21098;-64
2021/10/27 08:28:22;;;;;;;26.25;17.82;;;;;;;7.56;56.18;95502.80;1689045;82;21474;-60
2021/10/27 08:30:56;;;;;;;25.20;17.60;;;;;;;7.66;55.26;95495.06;1684408;82;21085;-69
2021/10/27 08:36:02;;;;;;;29.15;16.65;;;;;;;7.91;54.73;95495.51;1673493;82;21029;-60
2021/10/27 08:38:29;;;;;;;29.35;18.10;;;;;;;8.04;53.91;95488.91;1693711;82;21512;-61
2021/10/27 09:36:34;;;;;;;20.97;9.75;;;;;;;12.89;40.93;95448.63;1709016;82;21593;-63
2021/10/27 10:06:18;;;;;;;15.53;7.80;;;;;;;17.88;33.59;95415.98;1662185;83;21226;-60
2021/10/27 10:08:45;;;;;;;13.72;7.97;;;;;;;18.09;32.71;95407.89;1625554;83;21502;-62
2021/10/27 10:11:14;;;;;;;13.48;7.75;;;;;;;18.41;32.03;95400.75;1716486;81;21636;-60
2021/10/27 10:13:44;;;;;;;24.70;11.00;;;;;;;18.88;31.57;95399.09;1721680;82;21110;-56
2021/10/27 10:16:13;;;;;;;18.15;13.25;;;;;;;19.35;30.79;95393.16;1621645;85;20999;-63
2021/10/27 10:18:40;;;;;;;14.40;8.38;;;;;;;19.95;30.82;95391.70;1651662;85;21870;-62
2021/10/27 10:21:08;;;;;;;11.73;8.23;;;;;;;20.46;29.92;95394.50;1633383;84;21081;-59
2021/10/27 10:23:36;;;;;;;16.65;9.23;;;;;;;20.74;29.13;95382.92;1654589;85;21129;-60
2021/10/27 10:26:07;;;;;;;12.53;7.70;;;;;;;21.21;28.21;95385.02;1645587;84;21121;-62
2021/10/27 10:28:41;;;;;;;13.28;8.48;;;;;;;21.75;27.98;95381.75;1644430;84;21149;-62
2021/10/27 10:31:09;;;;;;;16.05;8.33;;;;;;;22.09;27.07;95380.56;1626223;85;21805;-61
2021/10/27 10:33:48;;;;;;;14.33;7.40;;;;;;;22.40;27.02;95374.13;1661528;83;21111;-60
2021/10/27 10:36:28;;;;;;;9.10;6.05;;;;;;;22.70;26.54;95382.16;1715066;82;21529;-60
2021/10/27 11:02:09;;;;;;;8.63;5.77;;;;;;;26.53;22.34;95372.14;1709491;81;21112;-62
2021/10/27 11:39:53;;;;;;;7.25;4.83;;;;;;;28.63;19.72;95337.09;1683700;82;21453;-60
2021/10/27 11:41:48;;;;;;;7.05;4.35;;;;;;;28.66;19.65;95333.16;1668677;82;21423;-61
2021/10/27 11:44:21;;;;;;;10.65;6.60;;;;;;;28.78;19.57;95333.74;1707519;82;21046;-59
2021/10/27 11:47:07;;;;;;;8.68;4.92;;;;;;;28.93;19.63;95334.58;1701583;81;21654;-67
2021/10/27 11:49:36;;;;;;;13.38;7.30;;;;;;;28.93;19.72;95331.08;1710100;81;21074;-62
2021/10/27 11:51:56;;;;;;;13.03;6.97;;;;;;;28.81;19.37;95325.55;1685076;83;21085;-59
2021/10/27 11:54:26;;;;;;;19.32;10.08;;;;;;;28.77;19.51;95324.39;1696623;82;23275;-56
2021/10/27 11:56:52;;;;;;;9.35;4.87;;;;;;;29.00;19.52;95319.06;1668228;83;21054;-60
2021/10/27 11:59:19;;;;;;;7.47;4.35;;;;;;;29.10;18.61;95320.75;1714829;81;21093;-60
2021/10/27 12:01:53;;;;;;;5.78;5.05;;;;;;;28.81;18.78;95314.22;1681469;82;21074;-61
2021/10/27 12:04:21;;;;;;;12.05;9.43;;;;;;;28.56;19.28;95302.39;1704645;81;20977;-60
2021/10/27 12:09:42;;;;;;;10.32;5.67;;;;;;;28.64;19.49;95298.96;1718194;82;21107;-63
2021/10/27 12:19:52;;;;;;;9.05;5.62;;;;;;;28.41;20.26;95301.56;1728894;81;21342;-63
2021/10/27 12:22:22;;;;;;;15.10;9.25;;;;;;;28.61;19.91;95297.23;1715683;82;21002;-62
2021/10/27 12:25:04;;;;;;;14.80;6.05;;;;;;;28.84;20.03;95298.97;1709898;82;20964;-64
2021/10/27 12:27:37;;;;;;;18.82;5.30;;;;;;;29.09;19.65;95297.94;1724225;81;20986;-61
2021/10/27 12:30:10;;;;;;;13.08;6.37;;;;;;;29.25;19.50;95299.58;1715005;82;21072;-59
2021/10/27 12:32:53;;;;;;;8.95;5.42;;;;;;;29.31;19.02;95298.78;1708677;82;21137;-61
2021/10/27 12:35:22;;;;;;;7.17;3.95;;;;;;;29.13;19.36;95302.62;1689298;82;21043;-58
2021/10/27 12:37:55;;;;;;;9.10;5.00;;;;;;;28.86;19.23;95297.75;1710140;82;21122;-61
2021/10/27 12:40:43;;;;;;;10.25;5.30;;;;;;;28.77;19.77;95300.31;1690892;82;21033;-59
2021/10/27 12:43:15;;;;;;;10.65;4.75;;;;;;;28.87;19.71;95303.52;1726929;81;21148;-59
2021/10/27 12:45:50;;;;;;;7.35;4.37;;;;;;;28.62;19.74;95298.09;1708145;82;21185;-61
2021/10/27 12:48:25;;;;;;;8.93;5.28;;;;;;;28.26;20.31;95298.54;1717773;82;21086;-63
2021/10/27 12:51:02;;;;;;;10.25;5.80;;;;;;;28.08;20.92;95293.06;1700581;81;21297;-59
2021/10/27 12:53:35;;;;;;;8.25;5.00;;;;;;;27.93;21.60;95299.95;1705112;81;21003;-59
2021/10/27 12:56:15;;;;;;;9.93;6.20;;;;;;;27.70;21.88;95299.53;1706181;82;21143;-62
2021/10/27 12:58:47;;;;;;;7.58;5.58;;;;;;;27.38;22.47;95302.50;1714309;81;21157;-59
2021/10/27 13:01:37;;;;;;;14.68;8.83;;;;;;;27.03;22.87;95294.41;1707445;81;21075;-59
2021/10/27 13:04:21;;;;;;;9.45;5.47;;;;;;;26.89;23.28;95299.92;1711490;82;21015;-60
2021/10/27 13:20:13;;;;;;;17.98;7.40;;;;;;;26.95;23.19;95301.24;1649399;85;20991;-63
2021/10/27 13:30:34;;;;;;;18.80;9.20;;;;;;;26.54;23.93;95305.17;1719118;81;21113;-64
2021/10/27 13:33:03;;;;;;;14.45;7.03;;;;;;;26.61;24.25;95295.42;1728021;81;21523;-64
2021/10/27 13:35:28;;;;;;;14.93;7.25;;;;;;;26.59;24.14;95298.03;1715664;81;21097;-66
2021/10/27 13:37:55;;;;;;;13.13;6.28;;;;;;;26.41;24.48;95301.62;1720578;81;21137;-65
2021/10/27 13:40:24;;;;;;;13.78;7.25;;;;;;;26.22;24.69;95298.08;1721870;81;21464;-61
2021/10/27 13:42:57;;;;;;;7.40;5.33;;;;;;;26.13;25.07;95295.64;1718429;81;21910;-63
2021/10/27 13:45:30;;;;;;;10.25;6.28;;;;;;;25.97;25.04;95307.92;1713942;81;21584;-64
2021/10/27 14:06:55;;;;;;;13.85;7.90;;;;;;;24.88;26.51;95312.02;1692219;81;21048;-65
2021/10/27 14:14:37;;;;;;;13.18;8.20;;;;;;;23.89;27.39;95317.00;1695118;81;21044;-61
2021/10/27 14:19:53;;;;;;;10.30;8.00;;;;;;;23.35;28.27;95325.80;1686971;81;22392;-61
2021/10/27 14:39:15;;;;;;;11.93;8.45;;;;;;;21.46;31.05;95339.34;1693024;81;21064;-62
2021/10/27 14:50:39;;;;;;;27.05;14.87;;;;;;;18.83;35.07;95337.02;1699829;81;20997;-61
2021/10/27 15:19:50;;;;;;;87.67;56.65;;;;;;;13.05;47.22;95374.69;1676775;84;21535;-59
2021/10/27 15:30:09;;;;;;;139.92;63.20;;;;;;;11.99;49.95;95375.03;1662346;84;20178;-60
2021/10/27 15:35:19;;;;;;;84.70;46.42;;;;;;;11.31;51.38;95386.46;1679389;83;21063;-61
2021/10/27 15:43:13;;;;;;;74.32;39.73;;;;;;;10.92;52.56;95386.75;1673760;84;21120;-58
2021/10/27 15:45:42;;;;;;;74.12;39.58;;;;;;;10.69;53.33;95394.44;1675325;84;21496;-61
2021/10/27 15:50:57;;;;;;;49.93;28.75;;;;;;;10.32;54.58;95398.34;1713465;82;21072;-60
2021/10/27 15:53:17;;;;;;;61.58;32.98;;;;;;;10.11;55.21;95401.56;1712854;82;21058;-60
2021/10/27 15:55:44;;;;;;;68.60;33.85;;;;;;;9.95;55.72;95413.90;1664530;84;21087;-60
2021/10/27 15:58:10;;;;;;;57.23;29.25;;;;;;;9.80;56.32;95410.67;1650044;84;21023;-60
2021/10/27 16:00:39;;;;;;;53.28;30.20;;;;;;;9.64;56.45;95418.10;1698527;83;21048;-60
2021/10/27 16:03:07;;;;;;;75.42;39.48;;;;;;;9.46;57.13;95420.44;1676205;83;21177;-59
2021/10/27 16:05:39;;;;;;;78.87;42.67;;;;;;;9.33;57.36;95429.13;1698131;83;21490;-66
2021/10/27 16:08:07;;;;;;;66.20;40.17;;;;;;;9.20;57.72;95430.94;1694881;82;21186;-62
2021/10/27 16:10:35;;;;;;;77.45;43.85;;;;;;;9.10;58.08;95437.42;1674202;83;21109;-60
2021/10/27 16:13:03;;;;;;;73.30;41.80;;;;;;;8.98;58.42;95440.19;1694345;83;21048;-60
2021/10/27 16:18:06;;;;;;;80.15;42.05;;;;;;;8.81;59.08;95441.86;1707162;83;21019;-59
2021/10/27 16:20:35;;;;;;;61.68;37.58;;;;;;;8.70;59.23;95445.98;1680650;84;21060;-64
2021/10/27 16:23:02;;;;;;;64.17;39.18;;;;;;;8.57;59.67;95450.50;1696402;83;22541;-61
2021/10/27 16:25:29;;;;;;;91.30;51.85;;;;;;;8.45;60.16;95462.08;1698058;84;21037;-60
2021/10/27 16:27:56;;;;;;;126.72;59.93;;;;;;;8.34;60.45;95451.28;1668902;85;21142;-62